Newton Falls, New York
Current Conditions -  °F | °C
As of 10:58 AM on Monday 24 Nov 2014 (Local Time) from KGTB Reporting Station
Scattered Clouds Scattered Clouds  
Wind Chill: 65°   Ceiling: Unl
Heat Index: 65°   Visibility: 10mi
Dew Point: 52°   Wind: 20mph
Humidity: 63%   Direction: 210°SSW
Pressure: 29.36"   Gusts: 28mph
Location:  44.21°N, 74.99°W
Report Text: KGTB 241558Z AUTO 21017G24KT 10SM SCT046 18/11 A2936 RMK AO2 PK WND 20033/03 SLP943 T01840113 20032
Loading
Personal Weather Stations






























Interactive Weather Map New forecast layout! Learn more

10-Day Weather Forecast

Advertisements
Track Severe Weather on mobile